DHAMM BIVM-ZZZZ
Flight info
| Callsign | DHAMM |
|---|---|
| Flight time | N/A |
| Altitude | 2500 |
| Route | THRIDRANGAR LIGHTHOUSE |
| Aircraft | B06/L-S/C |
Departure
| Time | 2026-05-06 13:13 |
|---|---|
| Airport | Vestmannaeyjar Airport (BIVM) |
Arrival
| Time | N/A |
|---|---|
| Airport | ZZZZ |
| Time | Latitude | Longitude | Altitude | Speed | Heading |
|---|---|---|---|---|---|
| 2026-05-06 12:55 | 63.42443 | -20.26908 | 333 ft | 0 kts | 23° |
| 2026-05-06 13:09 | 63.42443 | -20.26915 | 338 ft | 1 kts | 47° |
| 2026-05-06 13:09 | 63.42443 | -20.26916 | 357 ft | 1 kts | 102° |
| 2026-05-06 13:09 | 63.42430 | -20.26699 | 420 ft | 32 kts | 106° |
| 2026-05-06 13:09 | 63.42333 | -20.26028 | 476 ft | 58 kts | 106° |
| 2026-05-06 13:10 | 63.42280 | -20.25026 | 612 ft | 72 kts | 91° |
| 2026-05-06 13:10 | 63.42426 | -20.23900 | 648 ft | 84 kts | 63° |
| 2026-05-06 13:10 | 63.42871 | -20.22917 | 583 ft | 96 kts | 38° |
| 2026-05-06 13:10 | 63.43460 | -20.22272 | 624 ft | 94 kts | 31° |
| 2026-05-06 13:11 | 63.44053 | -20.21693 | 681 ft | 94 kts | 30° |
| 2026-05-06 13:11 | 63.44664 | -20.21355 | 793 ft | 90 kts | 11° |
| 2026-05-06 13:11 | 63.45310 | -20.21640 | 792 ft | 100 kts | 349° |
| 2026-05-06 13:11 | 63.45924 | -20.22529 | 774 ft | 108 kts | 323° |
| 2026-05-06 13:12 | 63.46407 | -20.23773 | 815 ft | 106 kts | 303° |
| 2026-05-06 13:12 | 63.46713 | -20.25256 | 854 ft | 104 kts | 295° |
| 2026-05-06 13:12 | 63.46992 | -20.26768 | 863 ft | 108 kts | 292° |
| 2026-05-06 13:12 | 63.47177 | -20.28431 | 889 ft | 108 kts | 279° |
| 2026-05-06 13:13 | 63.47306 | -20.30046 | 956 ft | 106 kts | 286° |
| 2026-05-06 13:13 | 63.47468 | -20.31703 | 979 ft | 111 kts | 286° |
| 2026-05-06 13:13 | 63.47604 | -20.33454 | 986 ft | 116 kts | 279° |
| 2026-05-06 13:13 | 63.47719 | -20.35190 | 1016 ft | 112 kts | 281° |
| 2026-05-06 13:14 | 63.47808 | -20.36968 | 1016 ft | 118 kts | 277° |
| 2026-05-06 13:14 | 63.47925 | -20.38771 | 999 ft | 116 kts | 280° |
| 2026-05-06 13:14 | 63.48057 | -20.40512 | 996 ft | 112 kts | 284° |
| 2026-05-06 13:14 | 63.48197 | -20.42223 | 980 ft | 113 kts | 281° |
| 2026-05-06 13:15 | 63.48331 | -20.43941 | 975 ft | 112 kts | 283° |
| 2026-05-06 13:15 | 63.48478 | -20.45645 | 1005 ft | 112 kts | 284° |
| 2026-05-06 13:15 | 63.48605 | -20.47379 | 966 ft | 113 kts | 280° |
| 2026-05-06 13:15 | 63.48668 | -20.49094 | 806 ft | 113 kts | 274° |
| 2026-05-06 13:16 | 63.48682 | -20.50845 | 627 ft | 113 kts | 266° |
| 2026-05-06 13:16 | 63.48972 | -20.52332 | 427 ft | 104 kts | 332° |
| 2026-05-06 13:16 | 63.49573 | -20.52361 | 361 ft | 79 kts | 41° |
| 2026-05-06 13:16 | 63.49636 | -20.51361 | 298 ft | 74 kts | 126° |
| 2026-05-06 13:17 | 63.49136 | -20.50875 | 197 ft | 81 kts | 161° |
| 2026-05-06 13:17 | 63.48771 | -20.51388 | 224 ft | 81 kts | 275° |
| 2026-05-06 13:17 | 63.49080 | -20.52407 | 224 ft | 69 kts | 284° |
| 2026-05-06 13:17 | 63.48939 | -20.52452 | 198 ft | 38 kts | 89° |
| 2026-05-06 13:18 | 63.48919 | -20.51861 | 197 ft | 32 kts | 104° |
| 2026-05-06 13:18 | 63.48875 | -20.51473 | 154 ft | 22 kts | 108° |
| 2026-05-06 13:18 | 63.48761 | -20.51189 | 109 ft | 42 kts | 172° |
| 2026-05-06 13:18 | 63.48624 | -20.51917 | 169 ft | 69 kts | 287° |
| 2026-05-06 13:19 | 63.48906 | -20.52381 | 186 ft | 52 kts | 54° |
| 2026-05-06 13:19 | 63.48883 | -20.51803 | 183 ft | 28 kts | 100° |
| 2026-05-06 13:19 | 63.48868 | -20.51468 | 149 ft | 12 kts | 96° |
| 2026-05-06 13:19 | 63.48863 | -20.51362 | 119 ft | 3 kts | 102° |
| 2026-05-06 13:20 | 63.48864 | -20.51346 | 136 ft | 0 kts | 117° |
| 2026-05-06 13:20 | 63.48692 | -20.51381 | 70 ft | 67 kts | 226° |
| 2026-05-06 13:20 | 63.48783 | -20.52186 | 258 ft | 53 kts | 32° |
| 2026-05-06 13:20 | 63.48857 | -20.51660 | 207 ft | 26 kts | 84° |
| 2026-05-06 13:21 | 63.48862 | -20.51408 | 147 ft | 8 kts | 91° |
| 2026-05-06 13:21 | 63.48860 | -20.51348 | 119 ft | 1 kts | 101° |
| 2026-05-06 13:21 | 63.48859 | -20.51338 | 112 ft | 0 kts | 101° |
| 2026-05-06 13:22 | 63.49400 | -20.52514 | 366 ft | 86 kts | 17° |
| 2026-05-06 13:22 | 63.49707 | -20.51688 | 328 ft | 72 kts | 100° |
| 2026-05-06 13:22 | 63.49319 | -20.50966 | 214 ft | 83 kts | 157° |
| 2026-05-06 13:23 | 63.48805 | -20.51005 | 245 ft | 76 kts | 230° |
| 2026-05-06 13:23 | 63.48979 | -20.52097 | 174 ft | 82 kts | 321° |
| 2026-05-06 13:23 | 63.48947 | -20.52636 | 214 ft | 38 kts | 122° |
| 2026-05-06 13:23 | 63.48936 | -20.52034 | 180 ft | 38 kts | 104° |
| 2026-05-06 13:24 | 63.48889 | -20.51582 | 171 ft | 24 kts | 107° |
| 2026-05-06 13:24 | 63.48834 | -20.51252 | 121 ft | 28 kts | 126° |
| 2026-05-06 13:24 | 63.48607 | -20.51586 | 142 ft | 64 kts | 259° |
| 2026-05-06 13:24 | 63.48791 | -20.52453 | 205 ft | 59 kts | 355° |
| 2026-05-06 13:25 | 63.48902 | -20.51955 | 187 ft | 35 kts | 108° |
| 2026-05-06 13:25 | 63.48872 | -20.51548 | 160 ft | 20 kts | 96° |
| 2026-05-06 13:25 | 63.48864 | -20.51382 | 129 ft | 5 kts | 100° |
| 2026-05-06 13:25 | 63.48860 | -20.51340 | 119 ft | 1 kts | 106° |
| 2026-05-06 13:26 | 63.48802 | -20.51248 | 100 ft | 45 kts | 164° |
| 2026-05-06 13:26 | 63.48664 | -20.52099 | 206 ft | 64 kts | 310° |
| 2026-05-06 13:26 | 63.48850 | -20.51806 | 222 ft | 32 kts | 84° |
| 2026-05-06 13:26 | 63.48861 | -20.51462 | 157 ft | 13 kts | 86° |
| 2026-05-06 13:27 | 63.48861 | -20.51359 | 120 ft | 3 kts | 100° |
| 2026-05-06 13:27 | 63.48859 | -20.51340 | 114 ft | 0 kts | 100° |
| 2026-05-06 13:27 | 63.48859 | -20.51338 | 112 ft | 0 kts | 101° |
| 2026-05-06 13:29 | 63.48824 | -20.51268 | 122 ft | 36 kts | 143° |
| 2026-05-06 13:30 | 63.48714 | -20.51982 | 156 ft | 58 kts | 314° |
| 2026-05-06 13:30 | 63.48859 | -20.51645 | 141 ft | 28 kts | 86° |
| 2026-05-06 13:30 | 63.48865 | -20.51411 | 135 ft | 6 kts | 96° |
| 2026-05-06 13:30 | 63.48861 | -20.51354 | 117 ft | 2 kts | 105° |
| 2026-05-06 13:31 | 63.48774 | -20.51404 | 53 ft | 63 kts | 221° |
| 2026-05-06 13:31 | 63.48755 | -20.52455 | 164 ft | 42 kts | 307° |
| 2026-05-06 13:31 | 63.48882 | -20.51903 | 186 ft | 40 kts | 93° |
| 2026-05-06 13:31 | 63.48868 | -20.51514 | 226 ft | 15 kts | 98° |
| 2026-05-06 13:32 | 63.48864 | -20.51371 | 148 ft | 2 kts | 107° |
| 2026-05-06 13:32 | 63.48860 | -20.51346 | 122 ft | 2 kts | 110° |
| 2026-05-06 13:32 | 63.48861 | -20.51346 | 118 ft | 2 kts | 110° |
| 2026-05-06 13:32 | 63.48859 | -20.51337 | 111 ft | 0 kts | 102° |
| 2026-05-06 13:33 | 63.48860 | -20.51336 | 115 ft | 2 kts | 107° |
| 2026-05-06 13:33 | 63.48803 | -20.51061 | 141 ft | 37 kts | 106° |
| 2026-05-06 13:33 | 63.49115 | -20.51138 | 157 ft | 72 kts | 317° |
| 2026-05-06 13:34 | 63.49018 | -20.51996 | 230 ft | 53 kts | 178° |
| 2026-05-06 13:34 | 63.48890 | -20.51642 | 173 ft | 26 kts | 103° |
| 2026-05-06 13:34 | 63.48865 | -20.51390 | 132 ft | 7 kts | 100° |
| 2026-05-06 13:34 | 63.48860 | -20.51341 | 116 ft | 2 kts | 108° |
| 2026-05-06 13:35 | 63.48860 | -20.51337 | 112 ft | 0 kts | 104° |
| 2026-05-06 13:35 | 63.48860 | -20.51342 | 117 ft | 1 kts | 103° |
| 2026-05-06 13:35 | 63.48859 | -20.51340 | 114 ft | 0 kts | 102° |
| 2026-05-06 13:36 | 63.48862 | -20.51356 | 137 ft | 1 kts | 112° |
| 2026-05-06 13:36 | 63.48758 | -20.51064 | 147 ft | 43 kts | 164° |
| 2026-05-06 13:36 | 63.48613 | -20.51705 | 191 ft | 61 kts | 295° |
| 2026-05-06 13:36 | 63.48866 | -20.51747 | 161 ft | 39 kts | 101° |
| 2026-05-06 13:37 | 63.48853 | -20.51289 | 137 ft | 29 kts | 103° |
| 2026-05-06 13:37 | 63.48718 | -20.51828 | 32 ft | 83 kts | 278° |
| 2026-05-06 13:37 | 63.48886 | -20.52840 | 214 ft | 50 kts | 17° |
| 2026-05-06 13:37 | 63.48912 | -20.52164 | 208 ft | 47 kts | 98° |
| 2026-05-06 13:38 | 63.48884 | -20.51628 | 189 ft | 25 kts | 99° |
| 2026-05-06 13:38 | 63.48867 | -20.51398 | 135 ft | 8 kts | 102° |
| 2026-05-06 13:38 | 63.48860 | -20.51341 | 118 ft | 1 kts | 107° |
| 2026-05-06 13:38 | 63.48860 | -20.51337 | 114 ft | 0 kts | 107° |
| 2026-05-06 13:39 | 63.48856 | -20.51319 | 128 ft | 13 kts | 101° |
| 2026-05-06 13:39 | 63.48664 | -20.51057 | 148 ft | 67 kts | 216° |
| 2026-05-06 13:40 | 63.48719 | -20.52173 | 220 ft | 82 kts | 288° |
| 2026-05-06 13:40 | 63.49055 | -20.52784 | 232 ft | 62 kts | 57° |
| 2026-05-06 13:40 | 63.48994 | -20.52071 | 245 ft | 36 kts | 108° |
| 2026-05-06 13:40 | 63.48912 | -20.51652 | 192 ft | 24 kts | 106° |
| 2026-05-06 13:41 | 63.48867 | -20.51391 | 130 ft | 9 kts | 101° |
| 2026-05-06 13:41 | 63.48861 | -20.51350 | 115 ft | 0 kts | 105° |
| 2026-05-06 13:41 | 63.48713 | -20.51287 | 89 ft | 66 kts | 214° |
| 2026-05-06 13:41 | 63.48923 | -20.52031 | 175 ft | 66 kts | 24° |
| 2026-05-06 13:42 | 63.48907 | -20.51510 | 187 ft | 23 kts | 113° |
| 2026-05-06 13:42 | 63.48864 | -20.51371 | 128 ft | 5 kts | 102° |
| 2026-05-06 13:42 | 63.48860 | -20.51338 | 114 ft | 0 kts | 104° |
| 2026-05-06 13:42 | 63.48860 | -20.51339 | 114 ft | 0 kts | 101° |
| 2026-05-06 13:43 | 63.48853 | -20.51290 | 115 ft | 25 kts | 106° |
| 2026-05-06 13:43 | 63.48613 | -20.51267 | 111 ft | 66 kts | 237° |
| 2026-05-06 13:43 | 63.48687 | -20.52304 | 223 ft | 65 kts | 330° |
| 2026-05-06 13:44 | 63.48866 | -20.51860 | 166 ft | 38 kts | 89° |
| 2026-05-06 13:44 | 63.48868 | -20.51490 | 151 ft | 14 kts | 94° |
| 2026-05-06 13:44 | 63.48862 | -20.51360 | 115 ft | 3 kts | 102° |
| 2026-05-06 13:44 | 63.48860 | -20.51340 | 117 ft | 0 kts | 107° |
| 2026-05-06 13:45 | 63.48861 | -20.51338 | 113 ft | 0 kts | 105° |
| 2026-05-06 13:45 | 63.48859 | -20.51338 | 114 ft | 0 kts | 105° |
| 2026-05-06 13:46 | 63.48721 | -20.51206 | 164 ft | 56 kts | 206° |
| 2026-05-06 13:46 | 63.48758 | -20.52298 | 201 ft | 83 kts | 288° |
| 2026-05-06 13:46 | 63.49040 | -20.52328 | 176 ft | 42 kts | 107° |
| 2026-05-06 13:46 | 63.48935 | -20.51794 | 199 ft | 34 kts | 105° |
| 2026-05-06 13:47 | 63.48873 | -20.51433 | 147 ft | 13 kts | 101° |
| 2026-05-06 13:47 | 63.48861 | -20.51350 | 119 ft | 2 kts | 102° |
| 2026-05-06 13:47 | 63.48859 | -20.51341 | 120 ft | 2 kts | 114° |
| 2026-05-06 13:47 | 63.48798 | -20.51907 | 52 ft | 63 kts | 272° |
| 2026-05-06 13:48 | 63.48879 | -20.51832 | 148 ft | 36 kts | 100° |
| 2026-05-06 13:48 | 63.48869 | -20.51445 | 164 ft | 12 kts | 94° |
| 2026-05-06 13:48 | 63.48862 | -20.51350 | 119 ft | 3 kts | 111° |
| 2026-05-06 13:48 | 63.48859 | -20.51340 | 119 ft | 0 kts | 104° |
| 2026-05-06 13:49 | 63.48859 | -20.51339 | 117 ft | 1 kts | 104° |
| 2026-05-06 13:49 | 63.48859 | -20.51338 | 114 ft | 0 kts | 103° |
| 2026-05-06 13:49 | 63.48855 | -20.51301 | 139 ft | 18 kts | 104° |
| 2026-05-06 13:50 | 63.48671 | -20.51458 | 157 ft | 71 kts | 258° |
| 2026-05-06 13:50 | 63.48872 | -20.51545 | 195 ft | 22 kts | 95° |
| 2026-05-06 13:50 | 63.48864 | -20.51367 | 131 ft | 4 kts | 103° |
| 2026-05-06 13:50 | 63.48860 | -20.51341 | 120 ft | 0 kts | 110° |
| 2026-05-06 13:51 | 63.48859 | -20.51340 | 116 ft | 0 kts | 104° |
| 2026-05-06 13:51 | 63.48859 | -20.51338 | 114 ft | 0 kts | 103° |
| 2026-05-06 13:52 | 63.48850 | -20.51258 | 135 ft | 29 kts | 107° |
| 2026-05-06 13:53 | 63.48726 | -20.50491 | 161 ft | 65 kts | 112° |
| 2026-05-06 13:53 | 63.48525 | -20.49517 | 212 ft | 72 kts | 116° |
| 2026-05-06 13:53 | 63.48342 | -20.48412 | 219 ft | 78 kts | 114° |
| 2026-05-06 13:53 | 63.48009 | -20.47415 | 283 ft | 80 kts | 134° |
| 2026-05-06 13:54 | 63.47581 | -20.46580 | 327 ft | 85 kts | 139° |
| 2026-05-06 13:54 | 63.47067 | -20.45741 | 246 ft | 96 kts | 141° |
| 2026-05-06 13:54 | 63.46542 | -20.44901 | 352 ft | 87 kts | 139° |
| 2026-05-06 13:54 | 63.46104 | -20.44031 | 460 ft | 86 kts | 136° |
| 2026-05-06 13:55 | 63.45665 | -20.43118 | 528 ft | 87 kts | 136° |
| 2026-05-06 13:55 | 63.45205 | -20.42192 | 522 ft | 91 kts | 134° |
| 2026-05-06 13:55 | 63.44750 | -20.41268 | 506 ft | 87 kts | 133° |
| 2026-05-06 13:55 | 63.44320 | -20.40344 | 482 ft | 84 kts | 132° |
| 2026-05-06 13:56 | 63.43923 | -20.39404 | 489 ft | 81 kts | 130° |
| 2026-05-06 13:56 | 63.43566 | -20.38482 | 508 ft | 76 kts | 127° |
| 2026-05-06 13:56 | 63.43279 | -20.37551 | 533 ft | 73 kts | 122° |
| 2026-05-06 13:56 | 63.43027 | -20.36539 | 487 ft | 80 kts | 115° |
| 2026-05-06 13:57 | 63.42878 | -20.35236 | 460 ft | 89 kts | 99° |
| 2026-05-06 13:57 | 63.42848 | -20.33808 | 460 ft | 93 kts | 96° |
| 2026-05-06 13:57 | 63.42795 | -20.32433 | 483 ft | 91 kts | 110° |
| 2026-05-06 13:57 | 63.42576 | -20.31144 | 525 ft | 89 kts | 114° |
| 2026-05-06 13:58 | 63.42847 | -20.30072 | 523 ft | 101 kts | 27° |
| 2026-05-06 13:58 | 63.43515 | -20.29627 | 581 ft | 100 kts | 32° |
| 2026-05-06 13:58 | 63.43948 | -20.28618 | 649 ft | 88 kts | 63° |
| 2026-05-06 13:58 | 63.44414 | -20.27763 | 797 ft | 90 kts | 29° |
| 2026-05-06 13:59 | 63.45037 | -20.27552 | 900 ft | 98 kts | 344° |
| 2026-05-06 13:59 | 63.45421 | -20.28947 | 877 ft | 118 kts | 283° |
| 2026-05-06 13:59 | 63.45170 | -20.29798 | 810 ft | 48 kts | 121° |
| 2026-05-06 13:59 | 63.44983 | -20.29095 | 848 ft | 47 kts | 111° |
| 2026-05-06 14:00 | 63.44870 | -20.28691 | 778 ft | 20 kts | 117° |
| 2026-05-06 14:00 | 63.44826 | -20.28572 | 724 ft | 1 kts | 134° |
| 2026-05-06 14:00 | 63.44827 | -20.28574 | 718 ft | 0 kts | 135° |
| 2026-05-06 14:02 | 63.44816 | -20.28545 | 729 ft | 20 kts | 125° |
| 2026-05-06 14:02 | 63.44418 | -20.28333 | 647 ft | 88 kts | 172° |
| 2026-05-06 14:03 | 63.43741 | -20.28286 | 579 ft | 100 kts | 174° |
| 2026-05-06 14:03 | 63.43055 | -20.28200 | 467 ft | 96 kts | 179° |
| 2026-05-06 14:03 | 63.42548 | -20.28061 | 424 ft | 55 kts | 141° |
| 2026-05-06 14:03 | 63.42424 | -20.27379 | 371 ft | 41 kts | 116° |
| 2026-05-06 14:04 | 63.42443 | -20.26969 | 354 ft | 11 kts | 93° |
| 2026-05-06 14:04 | 63.42444 | -20.26909 | 335 ft | 0 kts | 112° |
| 2026-05-06 14:04 | 63.42444 | -20.26910 | 331 ft | 0 kts | 103° |
| 2026-05-06 14:05 | 63.42453 | -20.26899 | 339 ft | 5 kts | 37° |
| 2026-05-06 14:05 | 63.42475 | -20.26870 | 339 ft | 2 kts | 23° |
| 2026-05-06 14:05 | 63.42479 | -20.26870 | 334 ft | 0 kts | 21° |